sensor_id;sensor_type;location;lat;lon;timestamp;P1;durP1;ratioP1;P2;durP2;ratioP2
21215;SDS011;10765;50.954;5.322;2023-10-08T00:01:08;6.47;;;4.23;;
21215;SDS011;10765;50.954;5.322;2023-10-08T00:03:39;7.17;;;4.57;;
21215;SDS011;10765;50.954;5.322;2023-10-08T00:06:13;4.90;;;4.40;;
21215;SDS011;10765;50.954;5.322;2023-10-08T00:08:40;4.90;;;4.07;;
21215;SDS011;10765;50.954;5.322;2023-10-08T00:11:07;5.27;;;4.77;;
21215;SDS011;10765;50.954;5.322;2023-10-08T00:13:37;7.90;;;4.53;;
21215;SDS011;10765;50.954;5.322;2023-10-08T00:16:06;6.53;;;4.60;;
21215;SDS011;10765;50.954;5.322;2023-10-08T00:18:35;5.43;;;4.50;;
21215;SDS011;10765;50.954;5.322;2023-10-08T00:21:03;6.03;;;4.57;;
21215;SDS011;10765;50.954;5.322;2023-10-08T00:23:42;5.23;;;4.00;;
21215;SDS011;10765;50.954;5.322;2023-10-08T00:26:15;5.43;;;4.30;;
21215;SDS011;10765;50.954;5.322;2023-10-08T00:28:45;4.90;;;4.30;;
21215;SDS011;10765;50.954;5.322;2023-10-08T00:31:13;6.20;;;4.63;;
21215;SDS011;10765;50.954;5.322;2023-10-08T00:33:42;6.50;;;4.60;;
21215;SDS011;10765;50.954;5.322;2023-10-08T00:36:10;6.00;;;4.33;;
21215;SDS011;10765;50.954;5.322;2023-10-08T00:38:44;5.73;;;4.03;;
21215;SDS011;10765;50.954;5.322;2023-10-08T00:41:14;4.60;;;3.87;;
21215;SDS011;10765;50.954;5.322;2023-10-08T00:43:41;6.63;;;3.97;;
21215;SDS011;10765;50.954;5.322;2023-10-08T00:46:11;5.70;;;4.30;;
21215;SDS011;10765;50.954;5.322;2023-10-08T00:48:48;6.23;;;3.70;;
21215;SDS011;10765;50.954;5.322;2023-10-08T00:51:18;5.87;;;4.00;;
21215;SDS011;10765;50.954;5.322;2023-10-08T00:53:52;6.10;;;3.93;;
21215;SDS011;10765;50.954;5.322;2023-10-08T00:56:25;4.73;;;4.13;;
21215;SDS011;10765;50.954;5.322;2023-10-08T00:59:10;6.40;;;4.30;;
21215;SDS011;10765;50.954;5.322;2023-10-08T01:01:40;4.17;;;3.63;;
21215;SDS011;10765;50.954;5.322;2023-10-08T01:04:15;6.33;;;4.30;;
21215;SDS011;10765;50.954;5.322;2023-10-08T01:06:42;6.20;;;3.97;;
21215;SDS011;10765;50.954;5.322;2023-10-08T01:09:09;4.93;;;4.07;;
21215;SDS011;10765;50.954;5.322;2023-10-08T01:11:43;4.87;;;3.50;;
21215;SDS011;10765;50.954;5.322;2023-10-08T01:14:15;5.07;;;3.87;;
21215;SDS011;10765;50.954;5.322;2023-10-08T01:16:47;5.77;;;4.17;;
21215;SDS011;10765;50.954;5.322;2023-10-08T01:19:17;5.13;;;4.03;;
21215;SDS011;10765;50.954;5.322;2023-10-08T01:21:45;7.53;;;3.87;;
21215;SDS011;10765;50.954;5.322;2023-10-08T01:24:14;6.07;;;3.93;;
21215;SDS011;10765;50.954;5.322;2023-10-08T01:26:42;4.77;;;3.93;;
21215;SDS011;10765;50.954;5.322;2023-10-08T01:29:11;5.10;;;3.87;;
21215;SDS011;10765;50.954;5.322;2023-10-08T01:31:44;5.30;;;3.83;;
21215;SDS011;10765;50.954;5.322;2023-10-08T01:34:11;5.77;;;4.07;;
21215;SDS011;10765;50.954;5.322;2023-10-08T01:36:42;4.87;;;3.83;;
21215;SDS011;10765;50.954;5.322;2023-10-08T01:39:10;4.77;;;3.83;;
21215;SDS011;10765;50.954;5.322;2023-10-08T01:41:43;5.03;;;3.87;;
21215;SDS011;10765;50.954;5.322;2023-10-08T01:44:11;6.10;;;3.80;;
21215;SDS011;10765;50.954;5.322;2023-10-08T01:46:38;5.40;;;3.60;;
21215;SDS011;10765;50.954;5.322;2023-10-08T01:49:06;6.27;;;3.60;;
21215;SDS011;10765;50.954;5.322;2023-10-08T01:51:39;5.47;;;3.60;;
21215;SDS011;10765;50.954;5.322;2023-10-08T01:54:11;4.77;;;3.73;;
21215;SDS011;10765;50.954;5.322;2023-10-08T01:56:44;4.70;;;3.70;;
21215;SDS011;10765;50.954;5.322;2023-10-08T01:59:11;5.23;;;4.00;;
21215;SDS011;10765;50.954;5.322;2023-10-08T02:01:39;4.97;;;3.70;;
21215;SDS011;10765;50.954;5.322;2023-10-08T02:04:06;5.03;;;3.30;;
21215;SDS011;10765;50.954;5.322;2023-10-08T02:06:34;5.73;;;3.90;;
21215;SDS011;10765;50.954;5.322;2023-10-08T02:09:01;5.27;;;3.40;;
21215;SDS011;10765;50.954;5.322;2023-10-08T02:11:40;5.00;;;3.93;;
21215;SDS011;10765;50.954;5.322;2023-10-08T02:14:10;5.87;;;4.07;;
21215;SDS011;10765;50.954;5.322;2023-10-08T02:16:40;5.67;;;3.90;;
21215;SDS011;10765;50.954;5.322;2023-10-08T02:19:08;6.60;;;4.67;;
21215;SDS011;10765;50.954;5.322;2023-10-08T02:21:36;5.73;;;3.67;;
21215;SDS011;10765;50.954;5.322;2023-10-08T02:24:05;7.17;;;4.30;;
21215;SDS011;10765;50.954;5.322;2023-10-08T02:26:32;5.50;;;3.83;;
21215;SDS011;10765;50.954;5.322;2023-10-08T02:29:01;6.87;;;4.30;;
21215;SDS011;10765;50.954;5.322;2023-10-08T02:31:31;5.60;;;4.17;;
21215;SDS011;10765;50.954;5.322;2023-10-08T02:33:58;5.90;;;3.80;;
21215;SDS011;10765;50.954;5.322;2023-10-08T02:36:25;4.03;;;3.60;;
21215;SDS011;10765;50.954;5.322;2023-10-08T02:38:51;6.57;;;4.13;;
21215;SDS011;10765;50.954;5.322;2023-10-08T02:41:20;4.33;;;3.53;;
21215;SDS011;10765;50.954;5.322;2023-10-08T02:43:49;4.37;;;3.33;;
21215;SDS011;10765;50.954;5.322;2023-10-08T02:46:18;6.70;;;3.30;;
21215;SDS011;10765;50.954;5.322;2023-10-08T02:48:45;5.20;;;4.00;;
21215;SDS011;10765;50.954;5.322;2023-10-08T02:51:12;5.77;;;3.80;;
21215;SDS011;10765;50.954;5.322;2023-10-08T02:53:39;4.73;;;3.57;;
21215;SDS011;10765;50.954;5.322;2023-10-08T02:56:09;4.77;;;3.87;;
21215;SDS011;10765;50.954;5.322;2023-10-08T02:58:39;5.90;;;3.70;;
21215;SDS011;10765;50.954;5.322;2023-10-08T03:01:09;5.47;;;3.80;;
21215;SDS011;10765;50.954;5.322;2023-10-08T03:03:40;4.70;;;4.07;;
21215;SDS011;10765;50.954;5.322;2023-10-08T03:06:08;5.33;;;3.90;;
21215;SDS011;10765;50.954;5.322;2023-10-08T03:08:37;4.37;;;3.07;;
21215;SDS011;10765;50.954;5.322;2023-10-08T03:11:08;5.00;;;3.97;;
21215;SDS011;10765;50.954;5.322;2023-10-08T03:13:42;5.87;;;4.23;;
21215;SDS011;10765;50.954;5.322;2023-10-08T03:16:11;6.17;;;3.80;;
21215;SDS011;10765;50.954;5.322;2023-10-08T03:18:40;5.73;;;4.17;;
21215;SDS011;10765;50.954;5.322;2023-10-08T03:21:10;4.87;;;3.70;;
21215;SDS011;10765;50.954;5.322;2023-10-08T03:23:45;5.87;;;3.97;;
21215;SDS011;10765;50.954;5.322;2023-10-08T03:26:15;5.27;;;4.07;;
21215;SDS011;10765;50.954;5.322;2023-10-08T03:28:59;4.23;;;3.63;;
21215;SDS011;10765;50.954;5.322;2023-10-08T03:31:33;4.63;;;3.40;;
21215;SDS011;10765;50.954;5.322;2023-10-08T03:34:17;7.37;;;4.13;;
21215;SDS011;10765;50.954;5.322;2023-10-08T03:36:45;5.93;;;4.43;;
21215;SDS011;10765;50.954;5.322;2023-10-08T03:39:15;5.73;;;3.93;;
21215;SDS011;10765;50.954;5.322;2023-10-08T03:41:43;4.63;;;3.77;;
21215;SDS011;10765;50.954;5.322;2023-10-08T03:44:25;5.50;;;3.83;;
21215;SDS011;10765;50.954;5.322;2023-10-08T03:46:55;4.80;;;3.30;;
21215;SDS011;10765;50.954;5.322;2023-10-08T03:49:23;5.83;;;3.90;;
21215;SDS011;10765;50.954;5.322;2023-10-08T03:51:56;6.73;;;3.80;;
21215;SDS011;10765;50.954;5.322;2023-10-08T03:54:23;4.27;;;3.43;;
21215;SDS011;10765;50.954;5.322;2023-10-08T03:56:59;4.63;;;3.63;;
21215;SDS011;10765;50.954;5.322;2023-10-08T03:59:29;4.93;;;3.20;;
21215;SDS011;10765;50.954;5.322;2023-10-08T04:01:56;5.73;;;3.90;;
21215;SDS011;10765;50.954;5.322;2023-10-08T04:04:36;4.83;;;3.73;;
21215;SDS011;10765;50.954;5.322;2023-10-08T04:07:16;4.17;;;3.50;;
21215;SDS011;10765;50.954;5.322;2023-10-08T04:10:05;5.00;;;3.97;;
21215;SDS011;10765;50.954;5.322;2023-10-08T04:13:03;5.37;;;3.83;;
21215;SDS011;10765;50.954;5.322;2023-10-08T04:15:33;5.60;;;3.60;;
21215;SDS011;10765;50.954;5.322;2023-10-08T04:18:05;6.13;;;3.97;;
21215;SDS011;10765;50.954;5.322;2023-10-08T04:20:35;5.43;;;3.67;;
21215;SDS011;10765;50.954;5.322;2023-10-08T04:23:04;7.97;;;4.20;;
21215;SDS011;10765;50.954;5.322;2023-10-08T04:25:38;5.77;;;3.87;;
21215;SDS011;10765;50.954;5.322;2023-10-08T04:28:07;4.77;;;3.63;;
21215;SDS011;10765;50.954;5.322;2023-10-08T04:30:38;4.87;;;3.90;;
21215;SDS011;10765;50.954;5.322;2023-10-08T04:33:07;6.53;;;4.33;;
21215;SDS011;10765;50.954;5.322;2023-10-08T04:35:39;5.53;;;3.70;;
21215;SDS011;10765;50.954;5.322;2023-10-08T04:38:13;5.00;;;3.67;;
21215;SDS011;10765;50.954;5.322;2023-10-08T04:40:43;4.77;;;3.73;;
21215;SDS011;10765;50.954;5.322;2023-10-08T04:43:14;5.03;;;3.70;;
21215;SDS011;10765;50.954;5.322;2023-10-08T04:45:47;5.87;;;4.20;;
21215;SDS011;10765;50.954;5.322;2023-10-08T04:48:14;6.30;;;3.60;;
21215;SDS011;10765;50.954;5.322;2023-10-08T04:50:46;5.87;;;3.80;;
21215;SDS011;10765;50.954;5.322;2023-10-08T04:53:23;5.90;;;4.10;;
21215;SDS011;10765;50.954;5.322;2023-10-08T04:55:56;6.83;;;4.07;;
21215;SDS011;10765;50.954;5.322;2023-10-08T04:58:27;6.37;;;3.73;;
21215;SDS011;10765;50.954;5.322;2023-10-08T05:00:59;4.90;;;3.53;;
21215;SDS011;10765;50.954;5.322;2023-10-08T05:03:42;6.30;;;3.77;;
21215;SDS011;10765;50.954;5.322;2023-10-08T05:06:23;5.40;;;3.83;;
21215;SDS011;10765;50.954;5.322;2023-10-08T05:09:18;5.00;;;3.80;;
21215;SDS011;10765;50.954;5.322;2023-10-08T05:12:04;5.37;;;4.00;;
21215;SDS011;10765;50.954;5.322;2023-10-08T05:14:53;5.73;;;4.13;;
21215;SDS011;10765;50.954;5.322;2023-10-08T05:17:42;5.97;;;4.17;;
21215;SDS011;10765;50.954;5.322;2023-10-08T05:20:23;5.57;;;4.10;;
21215;SDS011;10765;50.954;5.322;2023-10-08T05:23:09;5.17;;;4.30;;
21215;SDS011;10765;50.954;5.322;2023-10-08T05:25:58;4.60;;;4.20;;
21215;SDS011;10765;50.954;5.322;2023-10-08T05:28:34;9.27;;;4.20;;
21215;SDS011;10765;50.954;5.322;2023-10-08T05:31:12;6.33;;;4.17;;
21215;SDS011;10765;50.954;5.322;2023-10-08T05:34:01;6.67;;;4.20;;
21215;SDS011;10765;50.954;5.322;2023-10-08T05:36:40;4.73;;;3.83;;
21215;SDS011;10765;50.954;5.322;2023-10-08T05:39:35;5.37;;;4.03;;
21215;SDS011;10765;50.954;5.322;2023-10-08T05:42:07;6.37;;;4.50;;
21215;SDS011;10765;50.954;5.322;2023-10-08T05:44:42;7.07;;;4.40;;
21215;SDS011;10765;50.954;5.322;2023-10-08T05:47:11;4.50;;;3.67;;
21215;SDS011;10765;50.954;5.322;2023-10-08T05:50:03;4.90;;;3.70;;
21215;SDS011;10765;50.954;5.322;2023-10-08T05:52:48;5.53;;;4.00;;
21215;SDS011;10765;50.954;5.322;2023-10-08T05:55:28;7.00;;;4.27;;
21215;SDS011;10765;50.954;5.322;2023-10-08T05:58:02;6.33;;;3.93;;
21215;SDS011;10765;50.954;5.322;2023-10-08T06:00:40;7.53;;;4.60;;
21215;SDS011;10765;50.954;5.322;2023-10-08T06:03:30;8.30;;;4.63;;
21215;SDS011;10765;50.954;5.322;2023-10-08T06:06:11;6.50;;;4.50;;
21215;SDS011;10765;50.954;5.322;2023-10-08T06:09:01;7.53;;;4.73;;
21215;SDS011;10765;50.954;5.322;2023-10-08T06:11:47;7.13;;;4.53;;
21215;SDS011;10765;50.954;5.322;2023-10-08T06:14:36;8.13;;;4.53;;
21215;SDS011;10765;50.954;5.322;2023-10-08T06:17:18;7.50;;;4.57;;
21215;SDS011;10765;50.954;5.322;2023-10-08T06:20:00;7.10;;;4.53;;
21215;SDS011;10765;50.954;5.322;2023-10-08T06:22:35;8.20;;;5.03;;
21215;SDS011;10765;50.954;5.322;2023-10-08T06:25:02;8.03;;;5.00;;
21215;SDS011;10765;50.954;5.322;2023-10-08T06:27:42;6.10;;;4.87;;
21215;SDS011;10765;50.954;5.322;2023-10-08T06:30:12;7.97;;;4.63;;
21215;SDS011;10765;50.954;5.322;2023-10-08T06:32:42;7.20;;;4.93;;
21215;SDS011;10765;50.954;5.322;2023-10-08T06:35:10;7.43;;;4.40;;
21215;SDS011;10765;50.954;5.322;2023-10-08T06:37:42;6.67;;;4.20;;
21215;SDS011;10765;50.954;5.322;2023-10-08T06:40:10;7.27;;;4.43;;
21215;SDS011;10765;50.954;5.322;2023-10-08T06:42:58;9.20;;;5.13;;
21215;SDS011;10765;50.954;5.322;2023-10-08T06:45:30;4.60;;;3.87;;
21215;SDS011;10765;50.954;5.322;2023-10-08T06:47:58;5.47;;;4.20;;
21215;SDS011;10765;50.954;5.322;2023-10-08T06:50:31;6.77;;;5.23;;
21215;SDS011;10765;50.954;5.322;2023-10-08T06:53:01;6.80;;;4.57;;
21215;SDS011;10765;50.954;5.322;2023-10-08T06:55:32;5.30;;;4.13;;
21215;SDS011;10765;50.954;5.322;2023-10-08T06:58:00;7.67;;;4.40;;
21215;SDS011;10765;50.954;5.322;2023-10-08T07:00:32;5.17;;;4.37;;
21215;SDS011;10765;50.954;5.322;2023-10-08T07:03:04;5.67;;;4.63;;
21215;SDS011;10765;50.954;5.322;2023-10-08T07:05:36;7.80;;;4.73;;
21215;SDS011;10765;50.954;5.322;2023-10-08T07:08:09;5.80;;;4.50;;
21215;SDS011;10765;50.954;5.322;2023-10-08T07:10:38;6.70;;;4.63;;
21215;SDS011;10765;50.954;5.322;2023-10-08T07:13:07;5.33;;;4.60;;
21215;SDS011;10765;50.954;5.322;2023-10-08T07:15:35;5.27;;;4.70;;
21215;SDS011;10765;50.954;5.322;2023-10-08T07:18:05;6.23;;;5.10;;
21215;SDS011;10765;50.954;5.322;2023-10-08T07:20:38;7.47;;;4.90;;
21215;SDS011;10765;50.954;5.322;2023-10-08T07:23:07;8.13;;;4.90;;
21215;SDS011;10765;50.954;5.322;2023-10-08T07:25:44;5.47;;;4.30;;
21215;SDS011;10765;50.954;5.322;2023-10-08T07:28:18;6.37;;;4.30;;
21215;SDS011;10765;50.954;5.322;2023-10-08T07:30:47;5.37;;;4.30;;
21215;SDS011;10765;50.954;5.322;2023-10-08T07:33:15;5.53;;;4.30;;
21215;SDS011;10765;50.954;5.322;2023-10-08T07:35:45;6.70;;;4.67;;
21215;SDS011;10765;50.954;5.322;2023-10-08T07:38:20;8.80;;;4.77;;
21215;SDS011;10765;50.954;5.322;2023-10-08T07:40:47;4.90;;;4.03;;
21215;SDS011;10765;50.954;5.322;2023-10-08T07:43:15;6.17;;;4.13;;
21215;SDS011;10765;50.954;5.322;2023-10-08T07:45:45;5.90;;;4.20;;
21215;SDS011;10765;50.954;5.322;2023-10-08T07:48:14;4.63;;;4.03;;
21215;SDS011;10765;50.954;5.322;2023-10-08T07:50:41;7.40;;;4.27;;
21215;SDS011;10765;50.954;5.322;2023-10-08T07:53:10;5.10;;;4.13;;
21215;SDS011;10765;50.954;5.322;2023-10-08T07:55:46;7.03;;;3.97;;
21215;SDS011;10765;50.954;5.322;2023-10-08T07:58:15;5.30;;;4.40;;
21215;SDS011;10765;50.954;5.322;2023-10-08T08:00:42;5.53;;;4.37;;
21215;SDS011;10765;50.954;5.322;2023-10-08T08:03:21;5.40;;;4.60;;
21215;SDS011;10765;50.954;5.322;2023-10-08T08:05:49;8.43;;;4.73;;
21215;SDS011;10765;50.954;5.322;2023-10-08T08:08:21;6.00;;;4.47;;
21215;SDS011;10765;50.954;5.322;2023-10-08T08:10:52;8.63;;;4.50;;
21215;SDS011;10765;50.954;5.322;2023-10-08T08:13:23;5.70;;;4.43;;
21215;SDS011;10765;50.954;5.322;2023-10-08T08:15:53;6.40;;;4.20;;
21215;SDS011;10765;50.954;5.322;2023-10-08T08:18:25;6.23;;;4.70;;
21215;SDS011;10765;50.954;5.322;2023-10-08T08:20:57;5.67;;;4.57;;
21215;SDS011;10765;50.954;5.322;2023-10-08T08:23:29;6.47;;;4.63;;
21215;SDS011;10765;50.954;5.322;2023-10-08T08:25:57;6.97;;;4.93;;
21215;SDS011;10765;50.954;5.322;2023-10-08T08:28:36;9.47;;;4.73;;
21215;SDS011;10765;50.954;5.322;2023-10-08T08:31:04;5.70;;;4.77;;
21215;SDS011;10765;50.954;5.322;2023-10-08T08:33:40;6.80;;;5.00;;
21215;SDS011;10765;50.954;5.322;2023-10-08T08:36:21;7.37;;;4.50;;
21215;SDS011;10765;50.954;5.322;2023-10-08T08:38:49;6.23;;;4.60;;
21215;SDS011;10765;50.954;5.322;2023-10-08T08:41:16;8.20;;;5.07;;
21215;SDS011;10765;50.954;5.322;2023-10-08T08:43:44;6.60;;;4.90;;
21215;SDS011;10765;50.954;5.322;2023-10-08T08:46:14;6.53;;;5.07;;
21215;SDS011;10765;50.954;5.322;2023-10-08T08:48:43;8.50;;;5.33;;
21215;SDS011;10765;50.954;5.322;2023-10-08T08:51:11;8.03;;;5.20;;
21215;SDS011;10765;50.954;5.322;2023-10-08T08:53:38;8.33;;;5.00;;
21215;SDS011;10765;50.954;5.322;2023-10-08T08:56:06;7.83;;;5.70;;
21215;SDS011;10765;50.954;5.322;2023-10-08T08:58:35;7.00;;;5.37;;
21215;SDS011;10765;50.954;5.322;2023-10-08T09:01:05;9.67;;;5.57;;
21215;SDS011;10765;50.954;5.322;2023-10-08T09:03:34;8.33;;;5.40;;
21215;SDS011;10765;50.954;5.322;2023-10-08T09:06:03;8.03;;;5.50;;
21215;SDS011;10765;50.954;5.322;2023-10-08T09:08:33;10.73;;;5.00;;
21215;SDS011;10765;50.954;5.322;2023-10-08T09:11:01;8.20;;;5.47;;
21215;SDS011;10765;50.954;5.322;2023-10-08T09:13:30;7.50;;;5.77;;
21215;SDS011;10765;50.954;5.322;2023-10-08T09:16:02;8.00;;;5.90;;
21215;SDS011;10765;50.954;5.322;2023-10-08T09:18:32;7.10;;;5.50;;
21215;SDS011;10765;50.954;5.322;2023-10-08T09:21:14;10.77;;;6.17;;
21215;SDS011;10765;50.954;5.322;2023-10-08T09:23:44;10.10;;;6.37;;
21215;SDS011;10765;50.954;5.322;2023-10-08T09:26:16;10.93;;;6.23;;
21215;SDS011;10765;50.954;5.322;2023-10-08T09:28:45;8.77;;;6.30;;
21215;SDS011;10765;50.954;5.322;2023-10-08T09:31:13;7.00;;;5.57;;
21215;SDS011;10765;50.954;5.322;2023-10-08T09:33:42;8.37;;;6.40;;
21215;SDS011;10765;50.954;5.322;2023-10-08T09:36:10;9.47;;;6.57;;
21215;SDS011;10765;50.954;5.322;2023-10-08T09:38:45;11.30;;;6.40;;
21215;SDS011;10765;50.954;5.322;2023-10-08T09:41:13;8.97;;;5.80;;
21215;SDS011;10765;50.954;5.322;2023-10-08T09:43:40;10.87;;;6.57;;
21215;SDS011;10765;50.954;5.322;2023-10-08T09:46:12;10.23;;;6.53;;
21215;SDS011;10765;50.954;5.322;2023-10-08T09:48:44;10.90;;;6.63;;
21215;SDS011;10765;50.954;5.322;2023-10-08T09:51:16;9.85;;;6.82;;
21215;SDS011;10765;50.954;5.322;2023-10-08T09:53:51;9.10;;;6.63;;
21215;SDS011;10765;50.954;5.322;2023-10-08T09:56:20;12.70;;;6.43;;
21215;SDS011;10765;50.954;5.322;2023-10-08T09:58:49;8.87;;;6.13;;
21215;SDS011;10765;50.954;5.322;2023-10-08T10:01:16;12.40;;;7.10;;
21215;SDS011;10765;50.954;5.322;2023-10-08T10:03:45;11.40;;;6.37;;
21215;SDS011;10765;50.954;5.322;2023-10-08T10:06:12;10.43;;;6.40;;
21215;SDS011;10765;50.954;5.322;2023-10-08T10:08:41;10.07;;;6.20;;
21215;SDS011;10765;50.954;5.322;2023-10-08T10:11:10;10.60;;;6.30;;
21215;SDS011;10765;50.954;5.322;2023-10-08T10:13:42;10.75;;;7.20;;
21215;SDS011;10765;50.954;5.322;2023-10-08T10:16:13;9.95;;;6.63;;
21215;SDS011;10765;50.954;5.322;2023-10-08T10:18:43;9.85;;;6.82;;
21215;SDS011;10765;50.954;5.322;2023-10-08T10:21:24;8.40;;;6.63;;
21215;SDS011;10765;50.954;5.322;2023-10-08T10:24:00;10.20;;;6.47;;
21215;SDS011;10765;50.954;5.322;2023-10-08T10:26:32;11.10;;;6.93;;
21215;SDS011;10765;50.954;5.322;2023-10-08T10:29:22;11.65;;;6.55;;
21215;SDS011;10765;50.954;5.322;2023-10-08T10:31:51;9.45;;;7.32;;
21215;SDS011;10765;50.954;5.322;2023-10-08T10:34:20;12.80;;;7.43;;
21215;SDS011;10765;50.954;5.322;2023-10-08T10:36:50;10.13;;;6.32;;
21215;SDS011;10765;50.954;5.322;2023-10-08T10:39:23;12.13;;;7.05;;
21215;SDS011;10765;50.954;5.322;2023-10-08T10:41:56;12.20;;;7.50;;
21215;SDS011;10765;50.954;5.322;2023-10-08T10:44:26;11.32;;;7.00;;
21215;SDS011;10765;50.954;5.322;2023-10-08T10:46:55;14.32;;;7.15;;
21215;SDS011;10765;50.954;5.322;2023-10-08T10:49:36;10.38;;;7.10;;
21215;SDS011;10765;50.954;5.322;2023-10-08T10:52:13;11.43;;;6.90;;
21215;SDS011;10765;50.954;5.322;2023-10-08T10:54:43;10.13;;;7.30;;
21215;SDS011;10765;50.954;5.322;2023-10-08T10:57:25;10.50;;;6.90;;
21215;SDS011;10765;50.954;5.322;2023-10-08T11:00:01;12.63;;;6.97;;
21215;SDS011;10765;50.954;5.322;2023-10-08T11:02:44;11.23;;;6.87;;
21215;SDS011;10765;50.954;5.322;2023-10-08T11:05:14;14.23;;;7.50;;
21215;SDS011;10765;50.954;5.322;2023-10-08T11:07:44;11.80;;;7.27;;
21215;SDS011;10765;50.954;5.322;2023-10-08T11:10:13;11.33;;;7.20;;
21215;SDS011;10765;50.954;5.322;2023-10-08T11:12:42;12.10;;;7.77;;
21215;SDS011;10765;50.954;5.322;2023-10-08T11:15:12;14.37;;;7.33;;
21215;SDS011;10765;50.954;5.322;2023-10-08T11:17:40;10.67;;;7.40;;
21215;SDS011;10765;50.954;5.322;2023-10-08T11:20:22;11.63;;;7.17;;
21215;SDS011;10765;50.954;5.322;2023-10-08T11:22:50;9.67;;;7.07;;
21215;SDS011;10765;50.954;5.322;2023-10-08T11:25:20;11.17;;;6.97;;
21215;SDS011;10765;50.954;5.322;2023-10-08T11:27:54;9.70;;;7.23;;
21215;SDS011;10765;50.954;5.322;2023-10-08T11:30:26;11.40;;;7.47;;
21215;SDS011;10765;50.954;5.322;2023-10-08T11:32:56;15.40;;;7.80;;
21215;SDS011;10765;50.954;5.322;2023-10-08T11:35:24;10.33;;;7.27;;
21215;SDS011;10765;50.954;5.322;2023-10-08T11:37:57;11.57;;;6.73;;
21215;SDS011;10765;50.954;5.322;2023-10-08T11:40:26;12.67;;;7.27;;
21215;SDS011;10765;50.954;5.322;2023-10-08T11:42:55;10.10;;;6.77;;
21215;SDS011;10765;50.954;5.322;2023-10-08T11:45:23;11.17;;;7.00;;
21215;SDS011;10765;50.954;5.322;2023-10-08T11:47:51;10.37;;;6.27;;
21215;SDS011;10765;50.954;5.322;2023-10-08T11:50:29;12.80;;;6.90;;
21215;SDS011;10765;50.954;5.322;2023-10-08T11:53:00;14.23;;;7.20;;
21215;SDS011;10765;50.954;5.322;2023-10-08T11:55:28;13.87;;;6.53;;
21215;SDS011;10765;50.954;5.322;2023-10-08T11:58:00;13.37;;;7.23;;
21215;SDS011;10765;50.954;5.322;2023-10-08T12:00:35;11.00;;;7.13;;
21215;SDS011;10765;50.954;5.322;2023-10-08T12:03:09;11.70;;;7.47;;
21215;SDS011;10765;50.954;5.322;2023-10-08T12:05:37;10.17;;;6.80;;
21215;SDS011;10765;50.954;5.322;2023-10-08T12:08:12;10.90;;;6.47;;
21215;SDS011;10765;50.954;5.322;2023-10-08T12:10:41;10.60;;;6.20;;
21215;SDS011;10765;50.954;5.322;2023-10-08T12:13:12;11.07;;;6.70;;
21215;SDS011;10765;50.954;5.322;2023-10-08T12:15:41;12.30;;;6.50;;
21215;SDS011;10765;50.954;5.322;2023-10-08T12:18:09;11.40;;;6.70;;
21215;SDS011;10765;50.954;5.322;2023-10-08T12:20:41;10.77;;;6.73;;
21215;SDS011;10765;50.954;5.322;2023-10-08T12:23:10;14.93;;;7.67;;
21215;SDS011;10765;50.954;5.322;2023-10-08T12:25:44;13.47;;;6.43;;
21215;SDS011;10765;50.954;5.322;2023-10-08T12:28:17;11.50;;;6.00;;
21215;SDS011;10765;50.954;5.322;2023-10-08T12:30:45;9.53;;;6.23;;
21215;SDS011;10765;50.954;5.322;2023-10-08T12:33:12;12.33;;;6.93;;
21215;SDS011;10765;50.954;5.322;2023-10-08T12:35:41;10.70;;;6.67;;
21215;SDS011;10765;50.954;5.322;2023-10-08T12:38:09;10.23;;;6.77;;
21215;SDS011;10765;50.954;5.322;2023-10-08T12:40:38;11.50;;;6.80;;
21215;SDS011;10765;50.954;5.322;2023-10-08T12:43:19;9.57;;;6.73;;
21215;SDS011;10765;50.954;5.322;2023-10-08T12:45:46;11.77;;;6.83;;
21215;SDS011;10765;50.954;5.322;2023-10-08T12:48:20;9.73;;;6.50;;
21215;SDS011;10765;50.954;5.322;2023-10-08T12:50:48;10.20;;;6.17;;
21215;SDS011;10765;50.954;5.322;2023-10-08T12:53:21;8.80;;;6.17;;
21215;SDS011;10765;50.954;5.322;2023-10-08T12:55:52;10.53;;;6.43;;
21215;SDS011;10765;50.954;5.322;2023-10-08T12:58:21;9.93;;;6.63;;
21215;SDS011;10765;50.954;5.322;2023-10-08T13:00:51;11.23;;;5.90;;
21215;SDS011;10765;50.954;5.322;2023-10-08T13:03:23;10.77;;;6.73;;
21215;SDS011;10765;50.954;5.322;2023-10-08T13:05:50;11.33;;;6.77;;
21215;SDS011;10765;50.954;5.322;2023-10-08T13:08:19;11.83;;;6.13;;
21215;SDS011;10765;50.954;5.322;2023-10-08T13:10:46;10.77;;;6.37;;
21215;SDS011;10765;50.954;5.322;2023-10-08T13:13:12;13.20;;;6.37;;
21215;SDS011;10765;50.954;5.322;2023-10-08T13:15:41;9.70;;;6.43;;
21215;SDS011;10765;50.954;5.322;2023-10-08T13:18:08;12.23;;;5.83;;
21215;SDS011;10765;50.954;5.322;2023-10-08T13:20:35;10.97;;;6.13;;
21215;SDS011;10765;50.954;5.322;2023-10-08T13:23:05;9.37;;;5.93;;
21215;SDS011;10765;50.954;5.322;2023-10-08T13:25:32;9.23;;;5.50;;
21215;SDS011;10765;50.954;5.322;2023-10-08T13:28:04;10.47;;;5.13;;
21215;SDS011;10765;50.954;5.322;2023-10-08T13:30:34;9.90;;;5.60;;
21215;SDS011;10765;50.954;5.322;2023-10-08T13:33:06;15.27;;;6.00;;
21215;SDS011;10765;50.954;5.322;2023-10-08T13:35:34;11.23;;;4.70;;
21215;SDS011;10765;50.954;5.322;2023-10-08T13:38:01;8.70;;;5.77;;
21215;SDS011;10765;50.954;5.322;2023-10-08T13:40:34;10.90;;;5.93;;
21215;SDS011;10765;50.954;5.322;2023-10-08T13:43:08;10.90;;;6.00;;
21215;SDS011;10765;50.954;5.322;2023-10-08T13:45:36;10.47;;;6.03;;
21215;SDS011;10765;50.954;5.322;2023-10-08T13:48:06;11.13;;;5.53;;
21215;SDS011;10765;50.954;5.322;2023-10-08T13:50:38;10.03;;;5.83;;
21215;SDS011;10765;50.954;5.322;2023-10-08T13:53:05;9.97;;;5.60;;
21215;SDS011;10765;50.954;5.322;2023-10-08T13:55:33;11.80;;;5.87;;
21215;SDS011;10765;50.954;5.322;2023-10-08T13:58:00;11.67;;;6.00;;
21215;SDS011;10765;50.954;5.322;2023-10-08T14:00:27;9.27;;;5.50;;
21215;SDS011;10765;50.954;5.322;2023-10-08T14:03:01;11.83;;;5.77;;
21215;SDS011;10765;50.954;5.322;2023-10-08T14:05:34;11.10;;;5.70;;
21215;SDS011;10765;50.954;5.322;2023-10-08T14:08:05;9.10;;;5.60;;
21215;SDS011;10765;50.954;5.322;2023-10-08T14:10:39;10.00;;;5.73;;
21215;SDS011;10765;50.954;5.322;2023-10-08T14:13:08;8.10;;;5.50;;
21215;SDS011;10765;50.954;5.322;2023-10-08T14:15:35;8.23;;;5.20;;
21215;SDS011;10765;50.954;5.322;2023-10-08T14:18:09;9.83;;;5.53;;
21215;SDS011;10765;50.954;5.322;2023-10-08T14:20:43;9.00;;;5.50;;
21215;SDS011;10765;50.954;5.322;2023-10-08T14:23:12;9.20;;;5.47;;
21215;SDS011;10765;50.954;5.322;2023-10-08T14:25:42;9.30;;;5.50;;
21215;SDS011;10765;50.954;5.322;2023-10-08T14:28:11;11.37;;;5.50;;
21215;SDS011;10765;50.954;5.322;2023-10-08T14:30:47;11.87;;;5.57;;
21215;SDS011;10765;50.954;5.322;2023-10-08T14:33:19;10.90;;;5.80;;
21215;SDS011;10765;50.954;5.322;2023-10-08T14:35:53;10.73;;;5.63;;
21215;SDS011;10765;50.954;5.322;2023-10-08T14:38:37;11.37;;;5.80;;
21215;SDS011;10765;50.954;5.322;2023-10-08T14:41:21;10.70;;;5.53;;
21215;SDS011;10765;50.954;5.322;2023-10-08T14:44:06;9.53;;;5.60;;
21215;SDS011;10765;50.954;5.322;2023-10-08T14:46:33;9.07;;;5.00;;
21215;SDS011;10765;50.954;5.322;2023-10-08T14:49:02;10.80;;;5.47;;
21215;SDS011;10765;50.954;5.322;2023-10-08T14:51:36;8.83;;;5.30;;
21215;SDS011;10765;50.954;5.322;2023-10-08T14:54:05;10.30;;;5.23;;
21215;SDS011;10765;50.954;5.322;2023-10-08T14:56:34;11.07;;;5.43;;
21215;SDS011;10765;50.954;5.322;2023-10-08T14:59:03;10.57;;;5.77;;
21215;SDS011;10765;50.954;5.322;2023-10-08T15:01:30;10.10;;;5.47;;
21215;SDS011;10765;50.954;5.322;2023-10-08T15:03:59;8.43;;;5.50;;
21215;SDS011;10765;50.954;5.322;2023-10-08T15:06:29;10.13;;;5.50;;
21215;SDS011;10765;50.954;5.322;2023-10-08T15:08:58;9.23;;;5.27;;
21215;SDS011;10765;50.954;5.322;2023-10-08T15:11:26;9.70;;;5.07;;